createdAt,value
2018-05-23T00:00:13.420Z,101304.92
2018-05-23T00:01:17.673Z,101307.26
2018-05-23T00:02:21.826Z,101307.75
2018-05-23T00:03:25.976Z,101304.73
2018-05-23T00:04:30.929Z,101306.73
2018-05-23T00:05:35.113Z,101314.13
2018-05-23T00:06:40.047Z,101309.79
2018-05-23T00:07:44.197Z,101316.33
2018-05-23T00:08:48.371Z,101315.09
2018-05-23T00:09:52.549Z,101315.55
2018-05-23T00:10:58.214Z,101314.38
2018-05-23T00:12:03.138Z,101309.38
2018-05-23T00:13:08.062Z,101318.61
2018-05-23T00:14:12.208Z,101314.33
2018-05-23T00:15:16.394Z,101318.67
2018-05-23T00:16:20.565Z,101314.81
2018-05-23T00:17:26.231Z,101312.17
2018-05-23T00:18:31.159Z,101316.11
2018-05-23T00:19:35.309Z,101312.80
2018-05-23T00:20:39.480Z,101317.61
2018-05-23T00:21:44.402Z,101314.53
2018-05-23T00:22:48.558Z,101314.16
2018-05-23T00:23:52.718Z,101313.76
2018-05-23T00:24:56.906Z,101316.52
2018-05-23T00:26:01.053Z,101312.38
2018-05-23T00:27:06.017Z,101316.75
2018-05-23T00:28:10.165Z,101317.19
2018-05-23T00:29:15.821Z,101313.77
2018-05-23T00:30:19.991Z,101321.84
2018-05-23T00:31:24.146Z,101321.23
2018-05-23T00:32:29.103Z,101315.77
2018-05-23T00:33:33.265Z,101320.95
2018-05-23T00:34:37.486Z,101319.11
2018-05-23T00:35:41.911Z,101323.14
2018-05-23T00:36:46.828Z,101314.05
2018-05-23T00:37:50.976Z,101312.72
2018-05-23T00:38:55.194Z,101314.91
2018-05-23T00:39:59.359Z,101313.12
2018-05-23T00:41:03.519Z,101311.23
2018-05-23T00:42:07.678Z,101311.78
2018-05-23T00:43:11.825Z,101309.09
2018-05-23T00:44:16.015Z,101311.34
2018-05-23T00:45:20.942Z,101312.70
2018-05-23T00:46:25.852Z,101313.84
2018-05-23T00:47:30.009Z,101316.95
2018-05-23T00:48:34.160Z,101313.02
2018-05-23T00:49:38.481Z,101309.77
2018-05-23T00:50:42.634Z,101311.41
2018-05-23T00:51:46.780Z,101308.87
2018-05-23T00:52:50.933Z,101305.88
2018-05-23T00:53:55.848Z,101310.83
2018-05-23T00:55:18.517Z,101310.17
2018-05-23T00:56:22.669Z,101311.37
2018-05-23T00:57:26.852Z,101305.91
2018-05-23T00:58:31.005Z,101308.98
2018-05-23T00:59:35.190Z,101307.72
2018-05-23T01:00:39.350Z,101306.83
2018-05-23T01:01:44.303Z,101313.25
2018-05-23T01:02:48.455Z,101309.94
2018-05-23T01:03:52.708Z,101309.42
2018-05-23T01:04:56.861Z,101314.95
2018-05-23T01:06:01.458Z,101314.14
2018-05-23T01:07:05.629Z,101315.32
2018-05-23T01:08:10.551Z,101316.50
2018-05-23T01:09:14.769Z,101323.26
2018-05-23T01:10:19.690Z,101315.86
2018-05-23T01:11:24.614Z,101308.27
2018-05-23T01:12:28.773Z,101314.59
2018-05-23T01:13:32.968Z,101307.20
2018-05-23T01:14:37.178Z,101311.98
2018-05-23T01:15:41.702Z,101310.42
2018-05-23T01:16:45.870Z,101316.50
2018-05-23T01:17:50.036Z,101311.09
2018-05-23T01:18:54.188Z,101312.44
2018-05-23T01:19:58.374Z,101312.70
2018-05-23T01:21:02.529Z,101317.33
2018-05-23T01:22:07.477Z,101316.95
2018-05-23T01:23:12.062Z,101316.41
2018-05-23T01:24:16.212Z,101318.59
2018-05-23T01:25:20.367Z,101318.45
2018-05-23T01:26:24.521Z,101315.03
2018-05-23T01:27:28.691Z,101320.52
2018-05-23T01:28:33.218Z,101320.73
2018-05-23T01:29:37.378Z,101319.89
2018-05-23T01:30:41.537Z,101317.73
2018-05-23T01:31:45.708Z,101318.63
2018-05-23T01:32:49.860Z,101321.27
2018-05-23T01:33:54.919Z,101318.42
2018-05-23T01:34:59.058Z,101321.05
2018-05-23T01:36:03.226Z,101320.87
2018-05-23T01:37:08.133Z,101323.28
2018-05-23T01:38:12.293Z,101321.44
2018-05-23T01:39:16.507Z,101326.56
2018-05-23T01:40:20.656Z,101325.47
2018-05-23T01:41:24.966Z,101327.11
2018-05-23T01:42:29.101Z,101327.66
2018-05-23T01:43:34.018Z,101327.14
2018-05-23T01:44:39.308Z,101322.11
2018-05-23T01:45:43.461Z,101327.52
2018-05-23T01:46:48.079Z,101325.15
2018-05-23T01:47:52.225Z,101326.82
2018-05-23T01:49:14.285Z,101324.64
2018-05-23T01:50:18.438Z,101329.44
2018-05-23T01:51:23.459Z,101329.81
2018-05-23T01:52:27.684Z,101324.69
2018-05-23T01:53:32.598Z,101326.33
2018-05-23T01:54:36.743Z,101330.27
2018-05-23T01:55:40.894Z,101334.81
2018-05-23T01:56:45.051Z,101336.20
2018-05-23T01:57:49.233Z,101335.83
2018-05-23T01:58:54.145Z,101333.70
2018-05-23T01:59:58.293Z,101333.63
2018-05-23T02:01:02.442Z,101331.85
2018-05-23T02:02:06.595Z,101338.95
2018-05-23T02:03:12.020Z,101340.28
2018-05-23T02:04:16.165Z,101340.92
2018-05-23T02:05:20.351Z,101340.95
2018-05-23T02:06:25.266Z,101338.44
2018-05-23T02:07:29.414Z,101343.94
2018-05-23T02:08:33.797Z,101342.87
2018-05-23T02:09:37.950Z,101343.73
2018-05-23T02:10:42.093Z,101343.84
2018-05-23T02:11:46.249Z,101347.67
2018-05-23T02:12:50.407Z,101347.79
2018-05-23T02:13:54.612Z,101345.83
2018-05-23T02:14:58.775Z,101350.23
2018-05-23T02:16:02.921Z,101352.11
2018-05-23T02:17:07.064Z,101354.09
2018-05-23T02:18:11.213Z,101348.69
2018-05-23T02:19:15.409Z,101351.19
2018-05-23T02:20:20.332Z,101352.55
2018-05-23T02:21:25.242Z,101347.36
2018-05-23T02:22:29.388Z,101346.91
2018-05-23T02:23:33.536Z,101347.77
2018-05-23T02:24:37.876Z,101344.05
2018-05-23T02:25:42.027Z,101340.60
2018-05-23T02:26:46.199Z,101347.07
2018-05-23T02:27:50.346Z,101346.73
2018-05-23T02:28:54.502Z,101342.38
2018-05-23T02:29:59.022Z,101343.02
2018-05-23T02:31:03.174Z,101336.48
2018-05-23T02:32:07.327Z,101349.32
2018-05-23T02:33:11.494Z,101346.64
2018-05-23T02:34:15.640Z,101350.06
2018-05-23T02:35:20.215Z,101346.35
2018-05-23T02:36:24.393Z,101343.45
2018-05-23T02:37:28.538Z,101345.86
2018-05-23T02:38:32.689Z,101341.98
2018-05-23T02:39:36.842Z,101341.98
2018-05-23T02:40:41.955Z,101342.13
2018-05-23T02:41:46.105Z,101343.11
2018-05-23T02:42:50.249Z,101340.14
2018-05-23T02:43:54.401Z,101346.16
2018-05-23T02:44:59.318Z,101345.84
2018-05-23T02:46:04.261Z,101345.61
2018-05-23T02:47:09.240Z,101351.13
2018-05-23T02:48:13.382Z,101351.73
2018-05-23T02:49:17.686Z,101349.92
2018-05-23T02:50:21.829Z,101349.44
2018-05-23T02:51:25.982Z,101345.64
2018-05-23T02:52:30.132Z,101352.22
2018-05-23T02:53:35.053Z,101359.88
2018-05-23T02:54:40.083Z,101352.57
2018-05-23T02:55:44.989Z,101358.95
2018-05-23T02:56:49.146Z,101362.37
2018-05-23T02:57:53.296Z,101360.19
2018-05-23T02:58:57.457Z,101357.92
2018-05-23T03:00:01.826Z,101353.46
2018-05-23T03:01:05.982Z,101354.75
2018-05-23T03:02:10.137Z,101359.94
2018-05-23T03:03:14.286Z,101356.05
2018-05-23T03:04:19.309Z,101357.40
2018-05-23T03:05:23.490Z,101357.86
2018-05-23T03:06:27.689Z,101366.20
2018-05-23T03:07:31.841Z,101367.53
2018-05-23T03:08:35.993Z,101366.81
2018-05-23T03:09:40.141Z,101367.35
2018-05-23T03:10:45.834Z,101371.93
2018-05-23T03:11:49.985Z,101376.30
2018-05-23T03:12:54.414Z,101372.79
2018-05-23T03:13:58.556Z,101375.84
2018-05-23T03:15:02.721Z,101373.63
2018-05-23T03:16:06.873Z,101377.05
2018-05-23T03:17:11.016Z,101379.41
2018-05-23T03:18:15.364Z,101378.46
2018-05-23T03:19:21.021Z,101382.03
2018-05-23T03:20:25.191Z,101385.42
2018-05-23T03:21:29.346Z,101385.73
2018-05-23T03:22:34.270Z,101389.59
2018-05-23T03:23:39.217Z,101389.51
2018-05-23T03:24:43.365Z,101389.51
2018-05-23T03:25:47.622Z,101389.16
2018-05-23T03:26:52.948Z,101391.32
2018-05-23T03:27:57.865Z,101393.10
2018-05-23T03:29:02.012Z,101395.17
2018-05-23T03:30:06.160Z,101397.84
2018-05-23T03:31:10.318Z,101395.75
2018-05-23T03:32:15.295Z,101404.34
2018-05-23T03:33:19.446Z,101402.19
2018-05-23T03:34:24.379Z,101398.66
2018-05-23T03:35:29.305Z,101407.14
2018-05-23T03:36:34.236Z,101405.88
2018-05-23T03:37:39.245Z,101411.41
2018-05-23T03:38:43.580Z,101410.89
2018-05-23T03:39:49.314Z,101403.18
2018-05-23T03:40:54.220Z,101408.45
2018-05-23T03:41:58.378Z,101403.30
2018-05-23T03:43:02.527Z,101405.16
2018-05-23T03:44:06.665Z,101409.10
2018-05-23T03:45:10.978Z,101403.98
2018-05-23T03:46:15.136Z,101405.28
2018-05-23T03:47:19.289Z,101407.55
2018-05-23T03:48:23.448Z,101411.46
2018-05-23T03:49:27.611Z,101411.48
2018-05-23T03:50:31.924Z,101408.90
2018-05-23T03:51:36.090Z,101405.73
2018-05-23T03:52:40.233Z,101412.39
2018-05-23T03:53:44.390Z,101418.42
2018-05-23T03:54:48.543Z,101417.59
2018-05-23T03:55:52.749Z,101418.05
2018-05-23T03:56:56.897Z,101417.97
2018-05-23T03:58:01.041Z,101416.73
2018-05-23T03:59:05.194Z,101417.48
2018-05-23T04:00:27.218Z,101423.81
2018-05-23T04:01:49.370Z,101422.92
2018-05-23T04:03:11.312Z,101428.74
2018-05-23T04:04:33.359Z,101430.06
2018-05-23T04:05:55.275Z,101424.45
2018-05-23T04:07:17.061Z,101425.86
2018-05-23T04:08:21.216Z,101417.42
2018-05-23T04:09:25.410Z,101419.69
2018-05-23T04:10:29.556Z,101418.11
2018-05-23T04:11:33.704Z,101419.46
2018-05-23T04:12:37.853Z,101422.59
2018-05-23T04:13:42.014Z,101424.80
2018-05-23T04:14:46.221Z,101423.77
2018-05-23T04:15:50.467Z,101425.14
2018-05-23T04:16:55.376Z,101434.66
2018-05-23T04:17:59.530Z,101423.80
2018-05-23T04:19:03.677Z,101425.52
2018-05-23T04:20:07.885Z,101433.86
2018-05-23T04:21:12.046Z,101426.31
2018-05-23T04:22:16.959Z,101426.77
2018-05-23T04:23:21.874Z,101429.65
2018-05-23T04:24:26.020Z,101422.23
2018-05-23T04:25:30.208Z,101419.27
2018-05-23T04:26:35.134Z,101418.87
2018-05-23T04:27:39.285Z,101413.02
2018-05-23T04:28:43.454Z,101409.19
2018-05-23T04:29:48.375Z,101398.49
2018-05-23T04:30:52.690Z,101406.96
2018-05-23T04:31:58.212Z,101412.39
2018-05-23T04:33:02.369Z,101419.61
2018-05-23T04:34:06.539Z,101427.02
2018-05-23T04:35:10.685Z,101427.50
2018-05-23T04:36:15.069Z,101421.52
2018-05-23T04:37:19.235Z,101431.09
2018-05-23T04:38:23.377Z,101434.05
2018-05-23T04:39:27.524Z,101428.39
2018-05-23T04:40:31.677Z,101431.09
2018-05-23T04:41:35.849Z,101432.13
2018-05-23T04:42:40.009Z,101431.78
2018-05-23T04:43:44.643Z,101435.23
2018-05-23T04:44:48.810Z,101442.58
2018-05-23T04:45:52.958Z,101436.50
2018-05-23T04:46:57.118Z,101443.83
2018-05-23T04:48:01.289Z,101441.27
2018-05-23T04:49:05.475Z,101442.45
2018-05-23T04:50:09.632Z,101454.86
2018-05-23T04:51:13.789Z,101450.92
2018-05-23T04:52:17.941Z,101445.64
2018-05-23T04:53:22.866Z,101452.03
2018-05-23T04:54:27.810Z,101451.03
2018-05-23T04:55:31.958Z,101449.61
2018-05-23T04:56:36.164Z,101456.48
2018-05-23T04:57:40.340Z,101463.73
2018-05-23T04:58:44.490Z,101465.46
2018-05-23T04:59:48.641Z,101463.61
2018-05-23T05:00:52.802Z,101462.34
2018-05-23T05:01:57.150Z,101464.47
2018-05-23T05:03:01.314Z,101470.88
2018-05-23T05:04:05.470Z,101470.10
2018-05-23T05:05:10.389Z,101468.81
2018-05-23T05:06:14.546Z,101473.44
2018-05-23T05:07:18.726Z,101477.27
2018-05-23T05:08:23.646Z,101476.36
2018-05-23T05:09:27.845Z,101483.74
2018-05-23T05:10:32.771Z,101483.92
2018-05-23T05:11:36.925Z,101480.48
2018-05-23T05:12:41.088Z,101486.44
2018-05-23T05:13:45.257Z,101483.31
2018-05-23T05:14:49.615Z,101484.98
2018-05-23T05:15:53.761Z,101484.55
2018-05-23T05:16:57.919Z,101490.38
2018-05-23T05:18:02.072Z,101490.02
2018-05-23T05:19:06.988Z,101484.67
2018-05-23T05:20:12.105Z,101492.48
2018-05-23T05:21:17.769Z,101494.61
2018-05-23T05:22:22.690Z,101499.77
2018-05-23T05:23:26.900Z,101492.02
2018-05-23T05:24:31.834Z,101495.83
2018-05-23T05:25:37.868Z,101498.42
2018-05-23T05:26:42.034Z,101505.56
2018-05-23T05:27:46.185Z,101498.17
2018-05-23T05:28:50.342Z,101505.28
2018-05-23T05:29:55.129Z,101500.41
2018-05-23T05:30:59.441Z,101503.52
2018-05-23T05:32:03.598Z,101506.42
2018-05-23T05:33:07.758Z,101506.32
2018-05-23T05:34:11.901Z,101507.88
2018-05-23T05:35:16.054Z,101511.80
2018-05-23T05:36:20.239Z,101507.56
2018-05-23T05:37:25.231Z,101509.64
2018-05-23T05:38:30.154Z,101510.77
2018-05-23T05:39:35.086Z,101507.64
2018-05-23T05:40:39.996Z,101509.23
2018-05-23T05:41:45.794Z,101514.19
2018-05-23T05:42:49.934Z,101510.09
2018-05-23T05:43:54.073Z,101506.53
2018-05-23T05:44:58.989Z,101512.90
2018-05-23T05:46:03.141Z,101508.89
2018-05-23T05:47:07.309Z,101510.55
2018-05-23T05:48:11.462Z,101511.58
2018-05-23T05:49:15.654Z,101510.38
2018-05-23T05:50:20.569Z,101517.64
2018-05-23T05:51:25.513Z,101511.37
2018-05-23T05:52:30.466Z,101516.67
2018-05-23T05:53:34.625Z,101519.81
2018-05-23T05:54:38.785Z,101523.98
2018-05-23T05:55:42.944Z,101528.67
2018-05-23T05:56:47.097Z,101529.42
2018-05-23T05:57:51.362Z,101526.31
2018-05-23T05:58:57.014Z,101528.97
2018-05-23T06:00:01.939Z,101533.57
2018-05-23T06:01:06.161Z,101531.87
2018-05-23T06:02:11.166Z,101536.97
2018-05-23T06:03:15.797Z,101538.44
2018-05-23T06:04:19.950Z,101536.56
2018-05-23T06:05:24.089Z,101541.17
2018-05-23T06:06:28.234Z,101540.05
2018-05-23T06:07:33.148Z,101544.16
2018-05-23T06:08:37.329Z,101545.92
2018-05-23T06:09:41.493Z,101547.01
2018-05-23T06:10:46.480Z,101540.72
2018-05-23T06:11:50.656Z,101544.47
2018-05-23T06:12:54.826Z,101541.33
2018-05-23T06:13:58.993Z,101546.28
2018-05-23T06:15:03.142Z,101543.25
2018-05-23T06:16:07.301Z,101543.86
2018-05-23T06:17:11.494Z,101548.59
2018-05-23T06:18:15.637Z,101547.14
2018-05-23T06:19:19.785Z,101551.20
2018-05-23T06:20:23.924Z,101552.09
2018-05-23T06:21:28.064Z,101551.87
2018-05-23T06:22:32.457Z,101547.27
2018-05-23T06:23:36.625Z,101544.86
2018-05-23T06:24:42.283Z,101551.17
2018-05-23T06:25:47.192Z,101550.95
2018-05-23T06:26:51.328Z,101549.03
2018-05-23T06:27:56.732Z,101549.75
2018-05-23T06:29:00.882Z,101556.80
2018-05-23T06:30:05.040Z,101558.69
2018-05-23T06:31:09.214Z,101563.35
2018-05-23T06:32:13.394Z,101564.77
2018-05-23T06:33:18.334Z,101564.77
2018-05-23T06:34:22.533Z,101563.13
2018-05-23T06:35:27.454Z,101565.27
2018-05-23T06:36:32.429Z,101564.28
2018-05-23T06:37:36.564Z,101567.30
2018-05-23T06:38:40.728Z,101565.73
2018-05-23T06:39:44.902Z,101570.02
2018-05-23T06:40:50.582Z,101576.27
2018-05-23T06:41:54.725Z,101570.06
2018-05-23T06:42:58.864Z,101579.42
2018-05-23T06:44:03.024Z,101577.42
2018-05-23T06:45:07.216Z,101580.94
2018-05-23T06:46:11.607Z,101580.36
2018-05-23T06:47:15.759Z,101586.56
2018-05-23T06:48:19.896Z,101585.39
2018-05-23T06:49:24.109Z,101588.66
2018-05-23T06:50:28.915Z,101589.66
2018-05-23T06:51:33.486Z,101594.09
2018-05-23T06:52:38.402Z,101589.73
2018-05-23T06:53:42.571Z,101593.38
2018-05-23T06:54:46.713Z,101592.66
2018-05-23T06:55:50.857Z,101596.96
2018-05-23T06:56:55.342Z,101594.75
2018-05-23T06:57:59.489Z,101592.95
2018-05-23T06:59:03.656Z,101589.85
2018-05-23T07:00:07.833Z,101589.59
2018-05-23T07:01:11.976Z,101593.17
2018-05-23T07:02:16.141Z,101594.27
2018-05-23T07:03:20.285Z,101599.77
2018-05-23T07:04:24.607Z,101596.61
2018-05-23T07:05:28.753Z,101597.34
2018-05-23T07:06:32.892Z,101603.00
2018-05-23T07:07:37.028Z,101603.50
2018-05-23T07:08:41.178Z,101600.47
2018-05-23T07:09:46.133Z,101611.06
2018-05-23T07:10:50.281Z,101604.27
2018-05-23T07:11:54.493Z,101609.64
2018-05-23T07:12:58.641Z,101611.91
2018-05-23T07:14:02.933Z,101611.97
2018-05-23T07:15:07.535Z,101610.14
2018-05-23T07:16:11.681Z,101617.08
2018-05-23T07:17:15.838Z,101614.97
2018-05-23T07:18:19.988Z,101614.36
2018-05-23T07:19:24.921Z,101615.08
2018-05-23T07:20:29.855Z,101614.98
2018-05-23T07:21:34.010Z,101616.87
2018-05-23T07:22:38.356Z,101625.11
2018-05-23T07:23:42.506Z,101622.45
2018-05-23T07:24:46.652Z,101626.75
2018-05-23T07:25:50.797Z,101625.78
2018-05-23T07:26:54.957Z,101624.88
2018-05-23T07:27:59.152Z,101628.38
2018-05-23T07:29:03.313Z,101629.71
2018-05-23T07:30:08.642Z,101627.35
2018-05-23T07:31:12.785Z,101632.53
2018-05-23T07:32:16.920Z,101630.28
2018-05-23T07:33:21.093Z,101634.81
2018-05-23T07:34:25.296Z,101635.61
2018-05-23T07:35:29.475Z,101638.98
2018-05-23T07:36:33.617Z,101635.92
2018-05-23T07:37:38.525Z,101641.13
2018-05-23T07:38:42.677Z,101638.20
2018-05-23T07:39:46.850Z,101642.24
2018-05-23T07:40:50.997Z,101640.67
2018-05-23T07:41:55.156Z,101640.72
2018-05-23T07:42:59.302Z,101641.75
2018-05-23T07:44:03.465Z,101643.21
2018-05-23T07:45:08.425Z,101640.58
2018-05-23T07:46:13.362Z,101640.21
2018-05-23T07:47:17.682Z,101641.18
2018-05-23T07:48:21.839Z,101643.45
2018-05-23T07:49:25.988Z,101645.81
2018-05-23T07:50:30.907Z,101642.68
2018-05-23T07:51:35.053Z,101646.52
2018-05-23T07:52:39.263Z,101654.67
2018-05-23T07:53:43.405Z,101649.67
2018-05-23T07:54:47.545Z,101654.20
2018-05-23T07:55:51.689Z,101655.05
2018-05-23T07:56:55.828Z,101649.59
2018-05-23T07:57:59.993Z,101657.14
2018-05-23T07:59:04.138Z,101658.61
2018-05-23T08:00:08.476Z,101657.83
2018-05-23T08:01:12.630Z,101653.45
2018-05-23T08:02:16.773Z,101662.70
2018-05-23T08:03:20.917Z,101653.02
2018-05-23T08:04:25.068Z,101658.14
2018-05-23T08:05:29.259Z,101663.34
2018-05-23T08:06:33.528Z,101658.53
2018-05-23T08:07:37.687Z,101660.31
2018-05-23T08:08:41.827Z,101665.75
2018-05-23T08:09:46.246Z,101651.61
2018-05-23T08:10:50.391Z,101663.78
2018-05-23T08:11:54.537Z,101657.95
2018-05-23T08:12:58.677Z,101662.81
2018-05-23T08:14:02.824Z,101661.85
2018-05-23T08:15:06.992Z,101663.19
2018-05-23T08:16:11.142Z,101667.35
2018-05-23T08:17:15.276Z,101666.12
2018-05-23T08:18:19.420Z,101671.32
2018-05-23T08:19:23.570Z,101663.48
2018-05-23T08:20:28.657Z,101666.05
2018-05-23T08:21:32.799Z,101664.84
2018-05-23T08:22:38.510Z,101666.52
2018-05-23T08:23:42.628Z,101663.92
2018-05-23T08:24:46.773Z,101669.27
2018-05-23T08:25:51.861Z,101661.38
2018-05-23T08:26:56.000Z,101658.13
2018-05-23T08:28:00.166Z,101660.10
2018-05-23T08:29:04.451Z,101659.53
2018-05-23T08:30:08.613Z,101654.95
2018-05-23T08:31:13.002Z,101663.34
2018-05-23T08:32:17.149Z,101661.02
2018-05-23T08:33:21.302Z,101663.11
2018-05-23T08:34:25.498Z,101661.30
2018-05-23T08:35:29.650Z,101662.08
2018-05-23T08:36:34.199Z,101666.50
2018-05-23T08:37:38.397Z,101665.94
2018-05-23T08:38:42.586Z,101660.25
2018-05-23T08:39:46.742Z,101660.65
2018-05-23T08:40:50.902Z,101666.25
2018-05-23T08:41:55.563Z,101663.29
2018-05-23T08:42:59.724Z,101670.55
2018-05-23T08:44:03.861Z,101668.84
2018-05-23T08:45:08.027Z,101670.80
2018-05-23T08:46:12.941Z,101673.27
2018-05-23T08:47:17.873Z,101672.93
2018-05-23T08:48:22.818Z,101669.77
2018-05-23T08:49:26.967Z,101669.73
2018-05-23T08:50:31.108Z,101670.64
2018-05-23T08:51:36.030Z,101673.80
2018-05-23T08:52:40.448Z,101672.23
2018-05-23T08:53:44.601Z,101673.91
2018-05-23T08:54:48.754Z,101673.69
2018-05-23T08:55:52.919Z,101677.66
2018-05-23T08:56:57.069Z,101675.48
2018-05-23T08:58:02.212Z,101675.94
2018-05-23T08:59:06.359Z,101676.97
2018-05-23T09:00:10.507Z,101674.61
2018-05-23T09:01:14.673Z,101674.28
2018-05-23T09:02:18.816Z,101677.97
2018-05-23T09:03:23.469Z,101678.84
2018-05-23T09:04:27.609Z,101679.91
2018-05-23T09:05:31.748Z,101681.61
2018-05-23T09:06:35.940Z,101684.63
2018-05-23T09:07:40.089Z,101678.75
2018-05-23T09:08:44.418Z,101684.06
2018-05-23T09:09:48.560Z,101682.48
2018-05-23T09:10:52.708Z,101679.23
2018-05-23T09:11:56.865Z,101679.27
2018-05-23T09:13:01.768Z,101682.59
2018-05-23T09:14:05.980Z,101676.59
2018-05-23T09:15:10.206Z,101683.86
2018-05-23T09:16:14.350Z,101680.77
2018-05-23T09:17:18.496Z,101684.95
2018-05-23T09:18:22.646Z,101683.31
2018-05-23T09:19:27.615Z,101684.87
2018-05-23T09:20:31.839Z,101686.00
2018-05-23T09:21:35.988Z,101686.06
2018-05-23T09:22:40.897Z,101685.95
2018-05-23T09:23:45.040Z,101688.66
2018-05-23T09:24:49.751Z,101688.44
2018-05-23T09:25:54.661Z,101688.56
2018-05-23T09:26:58.810Z,101685.97
2018-05-23T09:28:02.954Z,101694.04
2018-05-23T09:29:07.119Z,101688.95
2018-05-23T09:30:11.289Z,101690.83
2018-05-23T09:31:15.436Z,101686.11
2018-05-23T09:32:19.693Z,101690.38
2018-05-23T09:33:24.545Z,101691.83
2018-05-23T09:34:29.673Z,101695.53
2018-05-23T09:35:33.829Z,101696.61
2018-05-23T09:36:37.981Z,101694.86
2018-05-23T09:37:42.163Z,101694.12
2018-05-23T09:38:46.311Z,101696.47
2018-05-23T09:39:52.153Z,101703.37
2018-05-23T09:40:56.297Z,101696.56
2018-05-23T09:42:00.446Z,101705.24
2018-05-23T09:43:04.596Z,101705.68
2018-05-23T09:44:09.521Z,101702.93
2018-05-23T09:45:13.707Z,101704.98
2018-05-23T09:46:17.870Z,101703.47
2018-05-23T09:47:22.033Z,101711.14
2018-05-23T09:48:26.213Z,101704.84
2018-05-23T09:49:30.447Z,101708.21
2018-05-23T09:50:34.723Z,101709.56
2018-05-23T09:51:38.874Z,101711.79
2018-05-23T09:52:43.826Z,101707.77
2018-05-23T09:53:48.737Z,101711.59
2018-05-23T09:54:52.886Z,101712.33
2018-05-23T09:55:57.070Z,101710.62
2018-05-23T09:57:01.266Z,101717.02
2018-05-23T09:58:05.416Z,101712.55
2018-05-23T09:59:09.565Z,101717.77
2018-05-23T10:00:13.713Z,101718.84
2018-05-23T10:01:18.626Z,101714.67
2018-05-23T10:02:22.822Z,101714.05
2018-05-23T10:03:26.965Z,101718.29
2018-05-23T10:04:31.146Z,101715.81
2018-05-23T10:05:35.289Z,101713.31
2018-05-23T10:06:40.201Z,101718.88
2018-05-23T10:07:44.810Z,101722.75
2018-05-23T10:08:48.953Z,101719.92
2018-05-23T10:09:53.101Z,101720.72
2018-05-23T10:10:57.241Z,101723.38
2018-05-23T10:12:01.389Z,101722.41
2018-05-23T10:13:05.602Z,101724.16
2018-05-23T10:14:09.764Z,101719.73
2018-05-23T10:15:13.924Z,101722.39
2018-05-23T10:16:18.078Z,101720.25
2018-05-23T10:17:22.224Z,101727.11
2018-05-23T10:18:27.477Z,101726.67
2018-05-23T10:19:31.633Z,101726.13
2018-05-23T10:20:35.780Z,101728.22
2018-05-23T10:21:40.699Z,101727.07
2018-05-23T10:22:44.871Z,101734.41
2018-05-23T10:23:49.054Z,101730.08
2018-05-23T10:24:53.242Z,101732.77
2018-05-23T10:25:57.393Z,101731.87
2018-05-23T10:27:01.604Z,101736.34
2018-05-23T10:28:05.781Z,101730.48
2018-05-23T10:29:09.916Z,101732.50
2018-05-23T10:30:14.056Z,101734.58
2018-05-23T10:31:18.980Z,101730.28
2018-05-23T10:32:23.144Z,101737.64
2018-05-23T10:33:27.303Z,101741.34
2018-05-23T10:34:32.261Z,101737.15
2018-05-23T10:35:36.660Z,101738.63
2018-05-23T10:36:41.588Z,101734.69
2018-05-23T10:37:46.500Z,101735.37
2018-05-23T10:38:52.148Z,101732.83
2018-05-23T10:39:56.295Z,101734.16
2018-05-23T10:41:00.969Z,101740.89
2018-05-23T10:42:05.171Z,101739.73
2018-05-23T10:43:09.316Z,101736.58
2018-05-23T10:44:14.229Z,101741.92
2018-05-23T10:45:18.374Z,101743.23
2018-05-23T10:46:22.566Z,101732.64
2018-05-23T10:47:27.481Z,101738.45
2018-05-23T10:48:32.394Z,101740.03
2018-05-23T10:49:38.089Z,101745.33
2018-05-23T10:50:42.235Z,101741.00
2018-05-23T10:51:46.822Z,101741.45
2018-05-23T10:52:50.950Z,101743.34
2018-05-23T10:53:55.185Z,101746.20
2018-05-23T10:54:59.349Z,101743.05
2018-05-23T10:56:03.489Z,101739.64
2018-05-23T10:57:08.059Z,101746.40
2018-05-23T10:58:12.160Z,101743.34
2018-05-23T10:59:17.065Z,101740.82
2018-05-23T11:00:21.209Z,101744.20
2018-05-23T11:01:25.361Z,101743.72
2018-05-23T11:02:29.998Z,101747.71
2018-05-23T11:03:34.146Z,101747.02
2018-05-23T11:04:38.349Z,101734.59
2018-05-23T11:05:43.368Z,101746.59
2018-05-23T11:06:47.431Z,101747.52
2018-05-23T11:07:51.781Z,101745.52
2018-05-23T11:08:55.929Z,101747.12
2018-05-23T11:10:00.104Z,101749.33
2018-05-23T11:11:04.262Z,101756.56
2018-05-23T11:12:08.406Z,101745.77
2018-05-23T11:13:12.634Z,101752.42
2018-05-23T11:14:17.617Z,101759.52
2018-05-23T11:15:21.799Z,101766.22
2018-05-23T11:16:26.690Z,101752.37
2018-05-23T11:17:30.862Z,101757.47
2018-05-23T11:18:35.092Z,101761.27
2018-05-23T11:19:40.283Z,101756.56
2018-05-23T11:20:44.432Z,101762.09
2018-05-23T11:21:48.576Z,101761.31
2018-05-23T11:22:53.490Z,101766.33
2018-05-23T11:23:57.649Z,101764.97
2018-05-23T11:25:01.851Z,101761.84
2018-05-23T11:26:05.989Z,101761.31
2018-05-23T11:27:10.135Z,101764.77
2018-05-23T11:28:14.286Z,101766.28
2018-05-23T11:29:18.433Z,101759.91
2018-05-23T11:30:22.595Z,101765.83
2018-05-23T11:31:26.732Z,101762.63
2018-05-23T11:32:30.972Z,101763.31
2018-05-23T11:33:35.196Z,101766.77
2018-05-23T11:34:39.736Z,101761.42
2018-05-23T11:35:43.880Z,101758.89
2018-05-23T11:36:48.025Z,101763.98
2018-05-23T11:37:52.933Z,101762.68
2018-05-23T11:38:57.140Z,101763.75
2018-05-23T11:40:01.289Z,101762.30
2018-05-23T11:41:05.444Z,101765.40
2018-05-23T11:42:09.594Z,101768.86
2018-05-23T11:43:13.746Z,101760.30
2018-05-23T11:44:17.913Z,101765.70
2018-05-23T11:45:22.065Z,101761.71
2018-05-23T11:46:26.514Z,101764.13
2018-05-23T11:47:31.370Z,101765.45
2018-05-23T11:48:35.535Z,101762.75
2018-05-23T11:49:39.686Z,101764.25
2018-05-23T11:50:43.829Z,101760.27
2018-05-23T11:51:48.003Z,101761.42
2018-05-23T11:52:52.277Z,101762.88
2018-05-23T11:53:56.429Z,101767.41
2018-05-23T11:55:01.346Z,101765.83
2018-05-23T11:56:05.496Z,101762.09
2018-05-23T11:57:09.656Z,101762.40
2018-05-23T11:58:13.844Z,101761.22
2018-05-23T11:59:18.041Z,101766.03
2018-05-23T12:00:22.195Z,101758.53
2018-05-23T12:01:26.342Z,101754.80
2018-05-23T12:02:30.498Z,101762.29
2018-05-23T12:03:34.677Z,101758.48
2018-05-23T12:04:38.868Z,101755.59
2018-05-23T12:05:43.018Z,101762.84
2018-05-23T12:06:47.157Z,101765.56
2018-05-23T12:07:51.351Z,101757.95
2018-05-23T12:08:55.498Z,101759.34
2018-05-23T12:10:00.080Z,101763.95
2018-05-23T12:11:04.233Z,101763.62
2018-05-23T12:12:08.393Z,101763.45
2018-05-23T12:13:12.541Z,101764.09
2018-05-23T12:14:17.461Z,101770.42
2018-05-23T12:15:21.626Z,101766.05
2018-05-23T12:16:25.893Z,101770.33